K16 weather

Becks Grove Airport
Rome, New York, United States

Public forecast

Using degrees Fahrenheit for public forecast. Weather courtesy of forecast.io.

Closest aviation weather report (METAR) to Becks Grove Airport

Closest report is Griffiss International Airport, 8.7 nm (16.2 km) E. Retrieved 2020/03/30 04:53 UTC (50 minutes ago):

KRME 300453Z AUTO 13005KT 10SM BKN080 OVC100 08/07 A2989 RMK AO2 SLP122 T00830067 401170061

Closest aviation forecast (TAF) to Becks Grove Airport

Closest forecast is Griffiss International Airport, 8.7 nm (16.2 km) E. Retrieved 2020-03-30 00:42 UTC (5 hours ago):

TAF KRME 292340Z 3000/3024 15010KT P6SM -SHRA OVC025 FM300300 23007KT P6SM BKN035 FM301100 14007KT P6SM -SHRA OVC025 FM301500 22007KT 2SM -SHRA OVC015